Time;durP1;ratioP1;P1;durP2;ratioP2;P2;SDS_P1;SDS_P2;PMS_P1;PMS_P2;Temp;Humidity;BMP_temperature;BMP_pressure;BME280_temperature;BME280_humidity;BME280_pressure;Samples;Min_cycle;Max_cycle;Signal;HPM_P1;HPM_P2
2022/09/11 00:01:17;;;;;;;;;;;;;;;;;;5085677;28;19947;-79
2022/09/11 00:03:44;;;;;;;;;;;;;;;;;;5067404;28;19936;-78
2022/09/11 00:06:11;;;;;;;;;;;;;;;;;;5068442;28;19925;-78
2022/09/11 00:08:40;;;;;;;;;;;;;;;;;;5065253;28;20310;-77
2022/09/11 00:11:08;;;;;;;;;;;;;;;;;;5066693;28;19928;-78
2022/09/11 00:13:38;;;;;;;;;;;;;;;;;;5066494;28;19925;-78
2022/09/11 00:16:06;;;;;;;;;;;;;;;;;;5068124;28;20003;-78
2022/09/11 00:18:34;;;;;;;;;;;;;;;;;;5062253;28;19978;-78
2022/09/11 00:21:01;;;;;;;;;;;;;;;;;;5068657;28;19975;-78
2022/09/11 00:23:28;;;;;;;;;;;;;;;;;;5065804;28;19931;-78
2022/09/11 00:25:56;;;;;;;;;;;;;;;;;;5064353;28;19925;-78
2022/09/11 00:28:23;;;;;;;;;;;;;;;;;;5068464;28;19932;-78
2022/09/11 00:30:57;;;;;;;;;;;;;;;;;;5069330;28;20375;-78
2022/09/11 00:33:23;;;;;;;;;;;;;;;;;;5067404;28;19925;-78
2022/09/11 00:35:57;;;;;;;;;;;;;;;;;;5068154;28;19924;-78
2022/09/11 00:38:24;;;;;;;;;;;;;;;;;;5068968;28;20326;-78
2022/09/11 00:40:50;;;;;;;;;;;;;;;;;;5067558;28;20409;-77
2022/09/11 00:43:18;;;;;;;;;;;;;;;;;;5066309;28;19929;-78
2022/09/11 00:45:45;;;;;;;;;;;;;;;;;;5068272;28;19982;-77
2022/09/11 00:48:14;;;;;;;;;;;;;;;;;;5066876;28;19931;-78
2022/09/11 00:50:43;;;;;;;;;;;;;;;;;;5068768;28;19947;-78
2022/09/11 00:53:10;;;;;;;;;;;;;;;;;;5071904;28;19964;-78
2022/09/11 00:55:41;;;;;;;;;;;;;;;;;;5067488;28;20002;-77
2022/09/11 00:58:09;;;;;;;;;;;;;;;;;;5067542;28;20024;-78
2022/09/11 01:00:38;;;;;;;;;;;;;;;;;;5064945;28;19924;-77
2022/09/11 01:03:05;;;;;;;;;;;;;;;;;;5048908;28;19925;-78
2022/09/11 01:05:33;;;;;;;;;;;;;;;;;;5048943;28;19990;-78
2022/09/11 01:08:02;;;;;;;;;;;;;;;;;;5047562;28;19956;-78
2022/09/11 01:10:40;;;;;;;;;;;;;;;;;;5035988;28;20360;-77
2022/09/11 01:13:10;;;;;;;;;;;;;;;;;;5036863;28;19996;-78
2022/09/11 01:15:41;;;;;;;;;;;;;;;;;;5036894;28;19925;-79
2022/09/11 01:18:13;;;;;;;;;;;;;;;;;;5035688;28;19993;-79
2022/09/11 01:20:46;;;;;;;;;;;;;;;;;;5035130;28;20007;-78
2022/09/11 01:23:27;;;;;;;;;;;;;;;;;;5036858;28;19983;-79
2022/09/11 01:26:06;;;;;;;;;;;;;;;;;;5033293;28;19976;-78
2022/09/11 01:28:37;;;;;;;;;;;;;;;;;;5036884;28;19925;-79
2022/09/11 01:31:05;;;;;;;;;;;;;;;;;;5037515;28;19925;-78
2022/09/11 01:33:35;;;;;;;;;;;;;;;;;;5035864;28;19932;-77
2022/09/11 01:36:04;;;;;;;;;;;;;;;;;;5035232;28;19960;-78
2022/09/11 01:38:33;;;;;;;;;;;;;;;;;;5034531;28;20019;-77
2022/09/11 01:41:04;;;;;;;;;;;;;;;;;;5034719;28;19957;-77
2022/09/11 01:43:32;;;;;;;;;;;;;;;;;;5034190;28;19925;-79
2022/09/11 01:46:01;;;;;;;;;;;;;;;;;;5035542;28;20368;-79
2022/09/11 01:48:31;;;;;;;;;;;;;;;;;;5033642;28;20028;-77
2022/09/11 01:51:02;;;;;;;;;;;;;;;;;;5034585;28;19929;-78
2022/09/11 01:53:31;;;;;;;;;;;;;;;;;;5035051;28;20398;-77
2022/09/11 01:56:01;;;;;;;;;;;;;;;;;;5035349;28;20016;-77
2022/09/11 01:58:29;;;;;;;;;;;;;;;;;;5033830;28;19929;-77
2022/09/11 02:00:58;;;;;;;;;;;;;;;;;;5034634;28;20307;-77
2022/09/11 02:03:28;;;;;;;;;;;;;;;;;;5034435;28;20398;-78
2022/09/11 02:05:57;;;;;;;;;;;;;;;;;;5034638;28;19928;-77
2022/09/11 02:08:27;;;;;;;;;;;;;;;;;;5036843;28;20025;-78
2022/09/11 02:10:55;;;;;;;;;;;;;;;;;;5037815;28;20015;-77
2022/09/11 02:13:24;;;;;;;;;;;;;;;;;;5038142;28;20007;-77
2022/09/11 02:15:52;;;;;;;;;;;;;;;;;;5038246;28;19925;-78
2022/09/11 02:18:23;;;;;;;;;;;;;;;;;;5037868;28;20085;-78
2022/09/11 02:20:52;;;;;;;;;;;;;;;;;;5038143;28;20016;-78
2022/09/11 02:23:18;;;;;;;;;;;;;;;;;;5037643;28;19935;-78
2022/09/11 02:25:46;;;;;;;;;;;;;;;;;;5037720;28;20004;-78
2022/09/11 02:28:13;;;;;;;;;;;;;;;;;;5037803;28;19928;-78
2022/09/11 02:30:40;;;;;;;;;;;;;;;;;;5037167;28;19925;-78
2022/09/11 02:33:22;;;;;;;;;;;;;;;;;;5040171;28;19960;-78
2022/09/11 02:35:50;;;;;;;;;;;;;;;;;;5039755;28;19975;-79
2022/09/11 02:38:21;;;;;;;;;;;;;;;;;;5039024;28;20364;-77
2022/09/11 02:40:51;;;;;;;;;;;;;;;;;;5038866;28;19993;-78
2022/09/11 02:43:37;;;;;;;;;;;;;;;;;;5041155;28;19929;-78
2022/09/11 02:46:22;;;;;;;;;;;;;;;;;;5040048;28;20016;-78
2022/09/11 02:48:56;;;;;;;;;;;;;;;;;;5056516;28;19935;-77
2022/09/11 02:51:27;;;;;;;;;;;;;;;;;;5058314;28;19925;-77
2022/09/11 02:53:58;;;;;;;;;;;;;;;;;;5055906;28;19937;-77
2022/09/11 02:56:28;;;;;;;;;;;;;;;;;;5057673;28;19929;-77
2022/09/11 02:58:56;;;;;;;;;;;;;;;;;;5057549;28;19932;-77
2022/09/11 03:01:23;;;;;;;;;;;;;;;;;;5056677;28;19971;-77
2022/09/11 03:03:49;;;;;;;;;;;;;;;;;;5057387;28;19929;-79
2022/09/11 03:06:17;;;;;;;;;;;;;;;;;;5059838;28;20013;-79
2022/09/11 03:08:44;;;;;;;;;;;;;;;;;;5058156;28;20020;-77
2022/09/11 03:11:14;;;;;;;;;;;;;;;;;;5055865;28;19924;-79
2022/09/11 03:13:40;;;;;;;;;;;;;;;;;;5057646;28;19926;-77
2022/09/11 03:16:07;;;;;;;;;;;;;;;;;;5057397;28;20007;-77
2022/09/11 03:18:35;;;;;;;;;;;;;;;;;;5056430;28;20375;-77
2022/09/11 03:21:02;;;;;;;;;;;;;;;;;;5057062;28;19925;-77
2022/09/11 03:23:29;;;;;;;;;;;;;;;;;;5057349;28;19957;-78
2022/09/11 03:25:55;;;;;;;;;;;;;;;;;;5057765;28;20012;-77
2022/09/11 03:28:23;;;;;;;;;;;;;;;;;;5056557;28;19929;-77
2022/09/11 03:30:51;;;;;;;;;;;;;;;;;;5057347;28;19925;-78
2022/09/11 03:33:18;;;;;;;;;;;;;;;;;;5057008;28;20011;-78
2022/09/11 03:35:44;;;;;;;;;;;;;;;;;;5056698;28;19931;-78
2022/09/11 03:38:14;;;;;;;;;;;;;;;;;;5057106;28;19925;-78
2022/09/11 03:40:42;;;;;;;;;;;;;;;;;;5057222;28;19924;-78
2022/09/11 03:43:11;;;;;;;;;;;;;;;;;;5056889;28;19925;-78
2022/09/11 03:45:38;;;;;;;;;;;;;;;;;;5059276;28;20445;-79
2022/09/11 03:48:05;;;;;;;;;;;;;;;;;;5058807;28;19925;-78
2022/09/11 03:50:32;;;;;;;;;;;;;;;;;;5057515;28;19929;-78
2022/09/11 03:53:02;;;;;;;;;;;;;;;;;;5056545;28;19960;-77
2022/09/11 03:55:30;;;;;;;;;;;;;;;;;;5056403;28;19925;-77
2022/09/11 03:57:57;;;;;;;;;;;;;;;;;;5056199;28;20277;-77
2022/09/11 04:00:24;;;;;;;;;;;;;;;;;;5056134;28;20406;-77
2022/09/11 04:02:52;;;;;;;;;;;;;;;;;;5056579;28;19925;-79
2022/09/11 04:05:18;;;;;;;;;;;;;;;;;;5056474;28;19931;-77
2022/09/11 04:07:44;;;;;;;;;;;;;;;;;;5056341;28;20023;-77
2022/09/11 04:10:11;;;;;;;;;;;;;;;;;;5056257;28;19932;-77
2022/09/11 04:12:38;;;;;;;;;;;;;;;;;;5056763;28;19924;-78
2022/09/11 04:15:05;;;;;;;;;;;;;;;;;;5056229;28;19978;-78
2022/09/11 04:17:31;;;;;;;;;;;;;;;;;;5056540;28;19925;-79
2022/09/11 04:20:01;;;;;;;;;;;;;;;;;;5057148;28;19932;-77
2022/09/11 04:22:27;;;;;;;;;;;;;;;;;;5057536;28;19925;-77
2022/09/11 04:24:53;;;;;;;;;;;;;;;;;;5057911;28;19924;-79
2022/09/11 04:27:22;;;;;;;;;;;;;;;;;;5058615;28;19928;-79
2022/09/11 04:29:48;;;;;;;;;;;;;;;;;;5056271;28;19947;-79
2022/09/11 04:32:15;;;;;;;;;;;;;;;;;;5056638;28;20384;-79
2022/09/11 04:34:42;;;;;;;;;;;;;;;;;;5057197;28;19931;-79
2022/09/11 04:37:10;;;;;;;;;;;;;;;;;;5057378;28;20383;-78
2022/09/11 04:39:36;;;;;;;;;;;;;;;;;;5056852;28;20322;-79
2022/09/11 04:42:09;;;;;;;;;;;;;;;;;;5057963;28;19931;-78
2022/09/11 04:44:35;;;;;;;;;;;;;;;;;;5057627;28;20016;-79
2022/09/11 04:47:02;;;;;;;;;;;;;;;;;;5057667;28;19935;-78
2022/09/11 04:49:28;;;;;;;;;;;;;;;;;;5057135;28;19925;-77
2022/09/11 04:51:55;;;;;;;;;;;;;;;;;;5060744;28;19984;-78
2022/09/11 04:54:23;;;;;;;;;;;;;;;;;;5059085;28;19925;-79
2022/09/11 04:56:49;;;;;;;;;;;;;;;;;;5063126;28;19925;-78
2022/09/11 04:59:18;;;;;;;;;;;;;;;;;;5060523;28;19929;-79
2022/09/11 05:01:47;;;;;;;;;;;;;;;;;;5057268;28;19935;-77
2022/09/11 05:04:14;;;;;;;;;;;;;;;;;;5055313;28;19925;-77
2022/09/11 05:06:41;;;;;;;;;;;;;;;;;;5055923;28;19925;-78
2022/09/11 05:09:10;;;;;;;;;;;;;;;;;;5055884;28;19925;-78
2022/09/11 05:11:38;;;;;;;;;;;;;;;;;;5057545;28;19925;-78
2022/09/11 05:14:04;;;;;;;;;;;;;;;;;;5057775;28;20279;-79
2022/09/11 05:16:33;;;;;;;;;;;;;;;;;;5056234;28;19960;-78
2022/09/11 05:19:00;;;;;;;;;;;;;;;;;;5059074;28;19947;-79
2022/09/11 05:21:27;;;;;;;;;;;;;;;;;;5056783;28;20383;-79
2022/09/11 05:23:54;;;;;;;;;;;;;;;;;;5057058;28;19925;-79
2022/09/11 05:26:21;;;;;;;;;;;;;;;;;;5057757;28;20383;-78
2022/09/11 05:28:52;;;;;;;;;;;;;;;;;;5056723;28;19932;-79
2022/09/11 05:31:19;;;;;;;;;;;;;;;;;;5057823;28;19931;-79
2022/09/11 05:33:45;;;;;;;;;;;;;;;;;;5057225;28;19929;-78
2022/09/11 05:36:12;;;;;;;;;;;;;;;;;;5060215;28;20299;-78
2022/09/11 05:38:39;;;;;;;;;;;;;;;;;;5058397;28;19924;-77
2022/09/11 05:41:09;;;;;;;;;;;;;;;;;;5064554;28;19925;-78
2022/09/11 05:43:36;;;;;;;;;;;;;;;;;;5067365;28;19921;-78
2022/09/11 05:46:04;;;;;;;;;;;;;;;;;;5071760;28;20304;-78
2022/09/11 05:48:31;;;;;;;;;;;;;;;;;;5068465;28;20019;-77
2022/09/11 05:50:59;;;;;;;;;;;;;;;;;;5070218;28;20320;-78
2022/09/11 05:53:26;;;;;;;;;;;;;;;;;;5068944;28;19925;-79
2022/09/11 05:55:53;;;;;;;;;;;;;;;;;;5069478;28;19928;-79
2022/09/11 05:58:21;;;;;;;;;;;;;;;;;;5069265;28;19932;-78
2022/09/11 06:00:48;;;;;;;;;;;;;;;;;;5063767;28;19972;-80
2022/09/11 06:03:16;;;;;;;;;;;;;;;;;;5059368;28;19974;-80
2022/09/11 06:05:43;;;;;;;;;;;;;;;;;;5056824;28;19967;-78
2022/09/11 06:08:10;;;;;;;;;;;;;;;;;;5057261;28;19925;-78
2022/09/11 06:10:37;;;;;;;;;;;;;;;;;;5057777;28;19924;-79
2022/09/11 06:13:04;;;;;;;;;;;;;;;;;;5062853;28;19928;-79
2022/09/11 06:15:31;;;;;;;;;;;;;;;;;;5060938;28;20031;-79
2022/09/11 06:18:07;;;;;;;;;;;;;;;;;;5060563;28;19931;-81
2022/09/11 06:20:37;;;;;;;;;;;;;;;;;;5062732;28;19925;-79
2022/09/11 06:23:04;;;;;;;;;;;;;;;;;;5058015;28;19931;-80
2022/09/11 06:25:31;;;;;;;;;;;;;;;;;;5060971;28;19929;-79
2022/09/11 06:27:59;;;;;;;;;;;;;;;;;;5062931;28;19980;-79
2022/09/11 06:30:26;;;;;;;;;;;;;;;;;;5061965;28;20383;-78
2022/09/11 06:32:55;;;;;;;;;;;;;;;;;;5060694;28;20338;-79
2022/09/11 06:35:22;;;;;;;;;;;;;;;;;;5060402;28;20434;-79
2022/09/11 06:37:49;;;;;;;;;;;;;;;;;;5056633;28;19925;-77
2022/09/11 06:40:17;;;;;;;;;;;;;;;;;;5057136;28;20036;-79
2022/09/11 06:42:43;;;;;;;;;;;;;;;;;;5056549;28;19975;-79
2022/09/11 06:45:10;;;;;;;;;;;;;;;;;;5057271;28;19925;-79
2022/09/11 06:47:36;;;;;;;;;;;;;;;;;;5056437;28;19931;-79
2022/09/11 06:50:03;;;;;;;;;;;;;;;;;;5056198;28;19947;-79
2022/09/11 06:52:33;;;;;;;;;;;;;;;;;;5056415;28;19929;-78
2022/09/11 06:55:01;;;;;;;;;;;;;;;;;;5058921;28;20404;-78
2022/09/11 06:57:28;;;;;;;;;;;;;;;;;;5059591;28;19932;-78
2022/09/11 06:59:55;;;;;;;;;;;;;;;;;;5058819;28;19924;-78
2022/09/11 07:02:21;;;;;;;;;;;;;;;;;;5059315;28;19936;-79
2022/09/11 07:04:47;;;;;;;;;;;;;;;;;;5060366;28;19935;-79
2022/09/11 07:07:14;;;;;;;;;;;;;;;;;;5061341;28;19925;-79
2022/09/11 07:09:40;;;;;;;;;;;;;;;;;;5060761;28;20016;-79
2022/09/11 07:12:09;;;;;;;;;;;;;;;;;;5060388;28;19924;-78
2022/09/11 07:14:37;;;;;;;;;;;;;;;;;;5058868;28;19939;-79
2022/09/11 07:17:03;;;;;;;;;;;;;;;;;;5059358;28;19932;-79
2022/09/11 07:19:30;;;;;;;;;;;;;;;;;;5062295;28;20272;-79
2022/09/11 07:21:57;;;;;;;;;;;;;;;;;;5063575;28;19940;-79
2022/09/11 07:24:23;;;;;;;;;;;;;;;;;;5061629;28;20294;-79
2022/09/11 07:26:49;;;;;;;;;;;;;;;;;;5058943;28;19956;-78
2022/09/11 07:29:17;;;;;;;;;;;;;;;;;;5059663;28;19931;-79
2022/09/11 07:31:45;;;;;;;;;;;;;;;;;;5058751;28;19925;-78
2022/09/11 07:34:11;;;;;;;;;;;;;;;;;;5058119;28;19928;-77
2022/09/11 07:36:38;;;;;;;;;;;;;;;;;;5058656;28;20003;-80
2022/09/11 07:39:04;;;;;;;;;;;;;;;;;;5058504;28;20008;-79
2022/09/11 07:41:31;;;;;;;;;;;;;;;;;;5059261;28;19984;-79
2022/09/11 07:43:59;;;;;;;;;;;;;;;;;;5059741;28;19925;-79
2022/09/11 07:46:27;;;;;;;;;;;;;;;;;;5058706;28;20023;-79
2022/09/11 07:48:54;;;;;;;;;;;;;;;;;;5058713;28;19933;-79
2022/09/11 07:51:21;;;;;;;;;;;;;;;;;;5059532;28;19964;-78
2022/09/11 07:53:48;;;;;;;;;;;;;;;;;;5059886;28;20296;-79
2022/09/11 07:56:16;;;;;;;;;;;;;;;;;;5059236;28;19932;-79
2022/09/11 07:58:43;;;;;;;;;;;;;;;;;;5056920;28;19925;-78
2022/09/11 08:01:12;;;;;;;;;;;;;;;;;;5056001;28;20019;-79
2022/09/11 08:03:41;;;;;;;;;;;;;;;;;;5056499;28;19931;-78
2022/09/11 08:06:10;;;;;;;;;;;;;;;;;;5055749;28;19925;-79
2022/09/11 08:08:37;;;;;;;;;;;;;;;;;;5055707;28;19924;-78
2022/09/11 08:11:04;;;;;;;;;;;;;;;;;;5056323;28;20031;-80
2022/09/11 08:13:31;;;;;;;;;;;;;;;;;;5055953;28;19931;-78
2022/09/11 08:15:57;;;;;;;;;;;;;;;;;;5055530;28;19931;-79
2022/09/11 08:18:24;;;;;;;;;;;;;;;;;;5055398;28;19925;-78
2022/09/11 08:20:53;;;;;;;;;;;;;;;;;;5054670;28;19931;-79
2022/09/11 08:23:20;;;;;;;;;;;;;;;;;;5055125;28;20338;-78
2022/09/11 08:25:46;;;;;;;;;;;;;;;;;;5054778;28;20356;-78
2022/09/11 08:28:13;;;;;;;;;;;;;;;;;;5054593;28;20336;-79
2022/09/11 08:30:40;;;;;;;;;;;;;;;;;;5054880;28;19932;-78
2022/09/11 08:33:07;;;;;;;;;;;;;;;;;;5054916;28;20302;-78
2022/09/11 08:35:34;;;;;;;;;;;;;;;;;;5055347;28;19925;-78
2022/09/11 08:38:02;;;;;;;;;;;;;;;;;;5054928;28;19925;-78
2022/09/11 08:40:28;;;;;;;;;;;;;;;;;;5054854;28;19925;-78
2022/09/11 08:42:57;;;;;;;;;;;;;;;;;;5055326;28;19999;-78
2022/09/11 08:45:26;;;;;;;;;;;;;;;;;;5054752;28;19925;-77
2022/09/11 08:47:54;;;;;;;;;;;;;;;;;;5055019;28;19960;-77
2022/09/11 08:50:24;;;;;;;;;;;;;;;;;;5054516;28;19976;-78
2022/09/11 08:52:50;;;;;;;;;;;;;;;;;;5055340;28;19925;-80
2022/09/11 08:55:23;;;;;;;;;;;;;;;;;;5055086;28;19924;-78
2022/09/11 08:57:53;;;;;;;;;;;;;;;;;;5054785;28;19924;-79
2022/09/11 09:00:20;;;;;;;;;;;;;;;;;;5054601;28;19931;-79
2022/09/11 09:03:05;;;;;;;;;;;;;;;;;;5039805;28;20014;-78
2022/09/11 09:05:35;;;;;;;;;;;;;;;;;;5034675;28;20023;-78
2022/09/11 09:08:13;;;;;;;;;;;;;;;;;;5034811;28;19931;-77
2022/09/11 09:10:47;;;;;;;;;;;;;;;;;;5042203;28;19925;-78
2022/09/11 09:13:21;;;;;;;;;;;;;;;;;;5041050;28;19932;-78
2022/09/11 09:15:53;;;;;;;;;;;;;;;;;;5041585;28;19932;-78
2022/09/11 09:18:26;;;;;;;;;;;;;;;;;;5040536;28;20014;-77
2022/09/11 09:20:59;;;;;;;;;;;;;;;;;;5037332;28;19928;-77
2022/09/11 09:23:28;;;;;;;;;;;;;;;;;;5040459;28;19931;-77
2022/09/11 09:25:56;;;;;;;;;;;;;;;;;;5040386;28;20455;-77
2022/09/11 09:28:24;;;;;;;;;;;;;;;;;;5036343;28;19935;-76
2022/09/11 09:30:51;;;;;;;;;;;;;;;;;;5033926;28;19925;-78
2022/09/11 09:33:22;;;;;;;;;;;;;;;;;;5034165;28;19925;-78
2022/09/11 09:35:49;;;;;;;;;;;;;;;;;;5033791;28;20012;-78
2022/09/11 09:40:54;;;;;;;;;;;;;;;;;;5076628;28;19925;-77
2022/09/11 09:43:32;;;;;;;;;;;;;;;;;;5078288;28;20440;-79
2022/09/11 09:46:13;;;;;;;;;;;;;;;;;;5077333;28;19998;-79
2022/09/11 09:48:40;;;;;;;;;;;;;;;;;;5075493;28;19968;-79
2022/09/11 09:51:11;;;;;;;;;;;;;;;;;;5060097;28;19975;-78
2022/09/11 09:53:40;;;;;;;;;;;;;;;;;;5058877;28;19924;-78
2022/09/11 09:56:07;;;;;;;;;;;;;;;;;;5059893;28;19982;-77
2022/09/11 09:58:39;;;;;;;;;;;;;;;;;;5058697;28;20391;-78
2022/09/11 10:01:07;;;;;;;;;;;;;;;;;;5056940;28;19928;-77
2022/09/11 10:03:34;;;;;;;;;;;;;;;;;;5052976;28;19947;-76
2022/09/11 10:06:01;;;;;;;;;;;;;;;;;;5053086;28;20221;-76
2022/09/11 10:08:32;;;;;;;;;;;;;;;;;;5052324;28;19929;-77
2022/09/11 10:10:59;;;;;;;;;;;;;;;;;;5054691;28;19924;-77
2022/09/11 10:13:27;;;;;;;;;;;;;;;;;;5058430;28;19931;-78
2022/09/11 10:15:56;;;;;;;;;;;;;;;;;;5057167;28;19931;-78
2022/09/11 10:18:23;;;;;;;;;;;;;;;;;;5056198;28;20362;-77
2022/09/11 10:20:50;;;;;;;;;;;;;;;;;;5057219;28;20011;-77
2022/09/11 10:23:24;;;;;;;;;;;;;;;;;;5055648;28;20295;-77
2022/09/11 10:25:51;;;;;;;;;;;;;;;;;;5057056;28;20446;-78
2022/09/11 10:28:19;;;;;;;;;;;;;;;;;;5055525;28;19925;-78
2022/09/11 10:30:52;;;;;;;;;;;;;;;;;;5061461;28;20418;-77
2022/09/11 10:33:25;;;;;;;;;;;;;;;;;;5063721;28;19932;-77
2022/09/11 10:35:53;;;;;;;;;;;;;;;;;;5059984;28;19931;-78
2022/09/11 10:38:21;;;;;;;;;;;;;;;;;;5060366;28;19952;-77
2022/09/11 10:41:07;;;;;;;;;;;;;;;;;;5060442;28;19988;-77
2022/09/11 10:43:46;;;;;;;;;;;;;;;;;;5059381;28;19931;-77
2022/09/11 10:46:28;;;;;;;;;;;;;;;;;;5058699;28;19990;-78
2022/09/11 10:48:57;;;;;;;;;;;;;;;;;;5055417;28;19932;-77
2022/09/11 10:51:24;;;;;;;;;;;;;;;;;;5061525;28;20362;-77
2022/09/11 10:53:57;;;;;;;;;;;;;;;;;;5062213;28;19931;-77
2022/09/11 10:56:25;;;;;;;;;;;;;;;;;;5061433;28;19940;-78
2022/09/11 10:58:54;;;;;;;;;;;;;;;;;;5058128;28;19959;-77
2022/09/11 11:01:21;;;;;;;;;;;;;;;;;;5056876;28;19959;-78
2022/09/11 11:03:47;;;;;;;;;;;;;;;;;;5056355;28;19971;-77
2022/09/11 11:06:24;;;;;;;;;;;;;;;;;;5056466;28;19932;-77
2022/09/11 11:09:09;;;;;;;;;;;;;;;;;;5056270;28;20358;-78
2022/09/11 11:11:41;;;;;;;;;;;;;;;;;;5056377;28;19925;-78
2022/09/11 11:14:20;;;;;;;;;;;;;;;;;;5056260;28;20008;-78
2022/09/11 11:16:51;;;;;;;;;;;;;;;;;;5055453;28;19929;-79
2022/09/11 11:19:29;;;;;;;;;;;;;;;;;;5056030;28;19924;-76
2022/09/11 11:22:07;;;;;;;;;;;;;;;;;;5056011;28;19970;-77
2022/09/11 11:24:45;;;;;;;;;;;;;;;;;;5056272;28;19925;-77
2022/09/11 11:27:26;;;;;;;;;;;;;;;;;;5056656;28;19975;-77
2022/09/11 11:30:01;;;;;;;;;;;;;;;;;;5056298;28;19979;-78
2022/09/11 11:32:39;;;;;;;;;;;;;;;;;;5055847;28;20015;-78
2022/09/11 11:35:16;;;;;;;;;;;;;;;;;;5055717;28;20019;-78
2022/09/11 11:37:46;;;;;;;;;;;;;;;;;;5055526;28;20096;-78
2022/09/11 11:40:17;;;;;;;;;;;;;;;;;;5054246;28;19924;-77
2022/09/11 11:42:45;;;;;;;;;;;;;;;;;;5055575;28;20012;-77
2022/09/11 11:45:22;;;;;;;;;;;;;;;;;;5056726;28;19964;-78
2022/09/11 11:47:51;;;;;;;;;;;;;;;;;;5056490;28;20310;-77
2022/09/11 11:50:22;;;;;;;;;;;;;;;;;;5055768;28;19925;-78
2022/09/11 11:52:53;;;;;;;;;;;;;;;;;;5055364;28;19925;-78
2022/09/11 11:55:21;;;;;;;;;;;;;;;;;;5056031;28;19940;-78
2022/09/11 11:57:53;;;;;;;;;;;;;;;;;;5055899;28;19975;-77
2022/09/11 12:00:20;;;;;;;;;;;;;;;;;;5056124;28;20025;-77
2022/09/11 12:02:49;;;;;;;;;;;;;;;;;;5039999;28;19960;-79
2022/09/11 12:05:17;;;;;;;;;;;;;;;;;;5035135;28;20277;-78
2022/09/11 12:07:46;;;;;;;;;;;;;;;;;;5035171;28;20060;-79
2022/09/11 12:10:21;;;;;;;;;;;;;;;;;;5034093;28;19925;-78
2022/09/11 12:12:49;;;;;;;;;;;;;;;;;;5035476;28;19987;-78
2022/09/11 12:15:18;;;;;;;;;;;;;;;;;;5036994;28;19940;-78
2022/09/11 12:17:45;;;;;;;;;;;;;;;;;;5036064;28;19926;-77
2022/09/11 12:20:29;;;;;;;;;;;;;;;;;;5036036;28;19925;-78
2022/09/11 12:22:57;;;;;;;;;;;;;;;;;;5034330;28;19932;-78
2022/09/11 12:25:41;;;;;;;;;;;;;;;;;;5034610;28;19925;-77
2022/09/11 12:28:20;;;;;;;;;;;;;;;;;;5023762;28;19936;-77
2022/09/11 12:31:00;;;;;;;;;;;;;;;;;;5034964;28;19975;-78
2022/09/11 12:33:46;;;;;;;;;;;;;;;;;;5036930;28;19988;-78
2022/09/11 12:36:15;;;;;;;;;;;;;;;;;;5036444;28;20438;-77
2022/09/11 12:38:44;;;;;;;;;;;;;;;;;;5032979;28;19926;-77
2022/09/11 12:41:12;;;;;;;;;;;;;;;;;;5033394;28;19929;-77
2022/09/11 12:43:47;;;;;;;;;;;;;;;;;;5032980;28;20395;-77
2022/09/11 12:46:28;;;;;;;;;;;;;;;;;;5033236;28;20020;-77
2022/09/11 12:48:57;;;;;;;;;;;;;;;;;;5031703;28;19936;-77
2022/09/11 12:51:25;;;;;;;;;;;;;;;;;;5032077;28;20392;-77
2022/09/11 12:53:52;;;;;;;;;;;;;;;;;;5032969;28;19925;-77
2022/09/11 12:56:20;;;;;;;;;;;;;;;;;;5033119;28;19925;-77
2022/09/11 12:58:55;;;;;;;;;;;;;;;;;;5032480;28;19936;-77
2022/09/11 13:01:23;;;;;;;;;;;;;;;;;;5029666;28;20612;-77
2022/09/11 13:03:56;;;;;;;;;;;;;;;;;;5013495;28;20016;-78
2022/09/11 13:06:23;;;;;;;;;;;;;;;;;;5013643;28;19925;-77
2022/09/11 13:08:51;;;;;;;;;;;;;;;;;;5012573;28;19925;-78
2022/09/11 13:11:34;;;;;;;;;;;;;;;;;;5013031;28;20332;-77
2022/09/11 13:14:01;;;;;;;;;;;;;;;;;;5013056;28;19925;-77
2022/09/11 13:16:29;;;;;;;;;;;;;;;;;;5013320;28;20027;-77
2022/09/11 13:19:00;;;;;;;;;;;;;;;;;;5012866;28;19930;-78
2022/09/11 13:21:26;;;;;;;;;;;;;;;;;;5014036;28;20303;-77
2022/09/11 13:23:53;;;;;;;;;;;;;;;;;;5014345;28;19932;-77
2022/09/11 13:26:23;;;;;;;;;;;;;;;;;;5013759;28;20024;-77
2022/09/11 13:28:51;;;;;;;;;;;;;;;;;;5013140;28;19925;-78
2022/09/11 13:31:20;;;;;;;;;;;;;;;;;;5013710;28;19929;-77
2022/09/11 13:33:49;;;;;;;;;;;;;;;;;;5013665;28;19930;-78
2022/09/11 13:36:16;;;;;;;;;;;;;;;;;;5013485;28;19925;-78
2022/09/11 13:38:43;;;;;;;;;;;;;;;;;;5013938;28;19926;-78
2022/09/11 13:41:14;;;;;;;;;;;;;;;;;;5014213;28;20388;-76
2022/09/11 13:43:43;;;;;;;;;;;;;;;;;;5012565;28;19925;-77
2022/09/11 13:46:21;;;;;;;;;;;;;;;;;;5012439;28;19945;-77
2022/09/11 13:48:49;;;;;;;;;;;;;;;;;;5012276;28;19929;-77
2022/09/11 13:51:17;;;;;;;;;;;;;;;;;;5012584;28;19971;-76
2022/09/11 13:53:45;;;;;;;;;;;;;;;;;;5012673;28;19925;-77
2022/09/11 13:56:19;;;;;;;;;;;;;;;;;;5012322;28;19940;-77
2022/09/11 13:58:46;;;;;;;;;;;;;;;;;;5013280;28;19933;-78
2022/09/11 14:01:13;;;;;;;;;;;;;;;;;;5014557;28;19925;-77
2022/09/11 14:03:45;;;;;;;;;;;;;;;;;;5035385;28;20016;-77
2022/09/11 14:06:15;;;;;;;;;;;;;;;;;;5036332;28;19925;-78
2022/09/11 14:08:45;;;;;;;;;;;;;;;;;;5037291;28;20008;-77
2022/09/11 14:11:14;;;;;;;;;;;;;;;;;;5045073;28;19996;-77
2022/09/11 14:13:43;;;;;;;;;;;;;;;;;;5039648;28;20402;-78
2022/09/11 14:16:16;;;;;;;;;;;;;;;;;;5038891;28;19948;-77
2022/09/11 14:18:47;;;;;;;;;;;;;;;;;;5036543;28;20281;-78
2022/09/11 14:21:14;;;;;;;;;;;;;;;;;;5036558;28;20352;-77
2022/09/11 14:23:42;;;;;;;;;;;;;;;;;;5035986;28;19925;-77
2022/09/11 14:26:11;;;;;;;;;;;;;;;;;;5036344;28;19929;-78
2022/09/11 14:28:42;;;;;;;;;;;;;;;;;;5035867;28;20379;-77
2022/09/11 14:31:09;;;;;;;;;;;;;;;;;;5036116;28;19929;-77
2022/09/11 14:33:36;;;;;;;;;;;;;;;;;;5036390;28;20028;-77
2022/09/11 14:36:05;;;;;;;;;;;;;;;;;;5036799;28;19925;-77
2022/09/11 14:38:32;;;;;;;;;;;;;;;;;;5035399;28;19925;-78
2022/09/11 14:41:00;;;;;;;;;;;;;;;;;;5035798;28;19944;-78
2022/09/11 14:43:30;;;;;;;;;;;;;;;;;;5035668;28;19933;-78
2022/09/11 14:45:56;;;;;;;;;;;;;;;;;;5035488;28;19932;-77
2022/09/11 14:48:24;;;;;;;;;;;;;;;;;;5035090;28;19932;-77
2022/09/11 14:50:50;;;;;;;;;;;;;;;;;;5035242;28;19925;-78
2022/09/11 14:53:20;;;;;;;;;;;;;;;;;;5035479;28;19932;-78
2022/09/11 14:55:46;;;;;;;;;;;;;;;;;;5035152;28;19968;-77
2022/09/11 14:58:13;;;;;;;;;;;;;;;;;;5035277;28;20454;-78
2022/09/11 15:00:40;;;;;;;;;;;;;;;;;;5034965;28;19925;-78
2022/09/11 15:03:06;;;;;;;;;;;;;;;;;;5017856;28;19933;-77
2022/09/11 15:05:33;;;;;;;;;;;;;;;;;;5015150;28;20419;-78
2022/09/11 15:07:59;;;;;;;;;;;;;;;;;;5015218;28;19971;-77
2022/09/11 15:10:27;;;;;;;;;;;;;;;;;;5014718;28;19930;-77
2022/09/11 15:12:54;;;;;;;;;;;;;;;;;;5015187;28;20008;-76
2022/09/11 15:15:20;;;;;;;;;;;;;;;;;;5014335;28;19925;-77
2022/09/11 15:17:47;;;;;;;;;;;;;;;;;;5015074;28;20387;-77
2022/09/11 15:20:13;;;;;;;;;;;;;;;;;;5014573;28;19965;-77
2022/09/11 15:22:39;;;;;;;;;;;;;;;;;;5014867;28;20313;-77
2022/09/11 15:25:06;;;;;;;;;;;;;;;;;;5015049;28;19925;-77
2022/09/11 15:27:34;;;;;;;;;;;;;;;;;;5014916;28;19926;-77
2022/09/11 15:30:01;;;;;;;;;;;;;;;;;;5014823;28;19925;-78
2022/09/11 15:32:27;;;;;;;;;;;;;;;;;;5014819;28;19988;-77
2022/09/11 15:34:54;;;;;;;;;;;;;;;;;;5014639;28;19932;-77
2022/09/11 15:37:20;;;;;;;;;;;;;;;;;;5014525;28;20016;-77
2022/09/11 15:39:46;;;;;;;;;;;;;;;;;;5021245;28;19932;-77
2022/09/11 15:42:13;;;;;;;;;;;;;;;;;;5036733;28;20011;-76
2022/09/11 15:44:41;;;;;;;;;;;;;;;;;;5037214;28;19932;-77
2022/09/11 15:47:07;;;;;;;;;;;;;;;;;;5037614;28;19925;-78
2022/09/11 15:49:38;;;;;;;;;;;;;;;;;;5037530;28;19925;-78
2022/09/11 15:52:05;;;;;;;;;;;;;;;;;;5039757;28;20312;-78
2022/09/11 15:54:31;;;;;;;;;;;;;;;;;;5040180;28;19925;-79
2022/09/11 15:56:57;;;;;;;;;;;;;;;;;;5040036;28;19925;-78
2022/09/11 15:59:27;;;;;;;;;;;;;;;;;;5038565;28;19925;-78
2022/09/11 16:01:55;;;;;;;;;;;;;;;;;;5031002;28;19956;-77
2022/09/11 16:04:26;;;;;;;;;;;;;;;;;;5018664;28;20015;-78
2022/09/11 16:06:53;;;;;;;;;;;;;;;;;;5018047;28;19932;-77
2022/09/11 16:09:20;;;;;;;;;;;;;;;;;;5018011;28;19929;-77
2022/09/11 16:11:49;;;;;;;;;;;;;;;;;;5018448;28;20410;-76
2022/09/11 16:14:16;;;;;;;;;;;;;;;;;;5018672;28;19926;-78
2022/09/11 16:16:45;;;;;;;;;;;;;;;;;;5018272;28;19932;-77
2022/09/11 16:19:13;;;;;;;;;;;;;;;;;;5017392;28;19991;-78
2022/09/11 16:21:40;;;;;;;;;;;;;;;;;;5017258;28;19925;-77
2022/09/11 16:24:08;;;;;;;;;;;;;;;;;;5017710;28;20020;-77
2022/09/11 16:26:37;;;;;;;;;;;;;;;;;;5017063;28;19929;-77
2022/09/11 16:29:06;;;;;;;;;;;;;;;;;;5016274;28;19925;-77
2022/09/11 16:31:32;;;;;;;;;;;;;;;;;;5015882;28;19926;-78
2022/09/11 16:33:59;;;;;;;;;;;;;;;;;;5016255;28;19925;-76
2022/09/11 16:36:29;;;;;;;;;;;;;;;;;;5016061;28;20021;-76
2022/09/11 16:38:55;;;;;;;;;;;;;;;;;;5015292;28;19932;-76
2022/09/11 16:41:22;;;;;;;;;;;;;;;;;;5015147;28;20012;-77
2022/09/11 16:43:52;;;;;;;;;;;;;;;;;;5015545;28;19925;-78
2022/09/11 16:46:20;;;;;;;;;;;;;;;;;;5015759;28;19940;-76
2022/09/11 16:48:47;;;;;;;;;;;;;;;;;;5015296;28;19996;-77
2022/09/11 16:51:15;;;;;;;;;;;;;;;;;;5015918;28;20009;-77
2022/09/11 16:53:43;;;;;;;;;;;;;;;;;;5015205;28;19926;-77
2022/09/11 16:56:11;;;;;;;;;;;;;;;;;;5015144;28;19940;-77
2022/09/11 16:58:38;;;;;;;;;;;;;;;;;;5014652;28;19932;-77
2022/09/11 17:01:05;;;;;;;;;;;;;;;;;;5016001;28;19987;-77